sensor_id;sensor_type;location;lat;lon;timestamp;P1;durP1;ratioP1;P2;durP2;ratioP2
32748;SDS011;19119;52.474;13.710;2024-02-28T00:00:44;29.10;;;11.38;;
32748;SDS011;19119;52.474;13.710;2024-02-28T00:03:10;20.42;;;8.82;;
32748;SDS011;19119;52.474;13.710;2024-02-28T00:05:35;25.73;;;10.77;;
32748;SDS011;19119;52.474;13.710;2024-02-28T00:08:01;25.08;;;10.23;;
32748;SDS011;19119;52.474;13.710;2024-02-28T00:10:26;23.27;;;8.27;;
32748;SDS011;19119;52.474;13.710;2024-02-28T00:12:52;23.77;;;9.85;;
32748;SDS011;19119;52.474;13.710;2024-02-28T00:15:17;25.40;;;10.82;;
32748;SDS011;19119;52.474;13.710;2024-02-28T00:17:43;27.27;;;11.55;;
32748;SDS011;19119;52.474;13.710;2024-02-28T00:20:09;22.02;;;9.90;;
32748;SDS011;19119;52.474;13.710;2024-02-28T00:22:35;26.90;;;10.43;;
32748;SDS011;19119;52.474;13.710;2024-02-28T00:25:02;27.15;;;10.98;;
32748;SDS011;19119;52.474;13.710;2024-02-28T00:27:28;25.90;;;9.43;;
32748;SDS011;19119;52.474;13.710;2024-02-28T00:29:53;25.83;;;10.13;;
32748;SDS011;19119;52.474;13.710;2024-02-28T00:32:19;25.27;;;10.82;;
32748;SDS011;19119;52.474;13.710;2024-02-28T00:34:44;25.52;;;10.93;;
32748;SDS011;19119;52.474;13.710;2024-02-28T00:37:09;24.77;;;10.25;;
32748;SDS011;19119;52.474;13.710;2024-02-28T00:39:35;28.65;;;10.23;;
32748;SDS011;19119;52.474;13.710;2024-02-28T00:42:01;21.88;;;9.82;;
32748;SDS011;19119;52.474;13.710;2024-02-28T00:44:26;26.30;;;9.95;;
32748;SDS011;19119;52.474;13.710;2024-02-28T00:46:52;28.83;;;11.05;;
32748;SDS011;19119;52.474;13.710;2024-02-28T00:49:17;22.67;;;9.95;;
32748;SDS011;19119;52.474;13.710;2024-02-28T00:51:43;27.33;;;11.05;;
32748;SDS011;19119;52.474;13.710;2024-02-28T00:54:08;28.15;;;10.75;;
32748;SDS011;19119;52.474;13.710;2024-02-28T00:56:34;24.83;;;10.98;;
32748;SDS011;19119;52.474;13.710;2024-02-28T00:58:59;30.65;;;11.77;;
32748;SDS011;19119;52.474;13.710;2024-02-28T01:01:25;30.95;;;12.60;;
32748;SDS011;19119;52.474;13.710;2024-02-28T01:03:50;30.98;;;10.55;;
32748;SDS011;19119;52.474;13.710;2024-02-28T01:06:16;34.67;;;11.93;;
32748;SDS011;19119;52.474;13.710;2024-02-28T01:08:41;33.28;;;12.98;;
32748;SDS011;19119;52.474;13.710;2024-02-28T01:11:07;30.17;;;11.43;;
32748;SDS011;19119;52.474;13.710;2024-02-28T01:13:32;24.83;;;9.73;;
32748;SDS011;19119;52.474;13.710;2024-02-28T01:15:58;30.55;;;11.50;;
32748;SDS011;19119;52.474;13.710;2024-02-28T01:18:24;23.75;;;10.73;;
32748;SDS011;19119;52.474;13.710;2024-02-28T01:20:50;24.20;;;10.63;;
32748;SDS011;19119;52.474;13.710;2024-02-28T01:23:17;24.67;;;10.43;;
32748;SDS011;19119;52.474;13.710;2024-02-28T01:25:42;28.00;;;10.63;;
32748;SDS011;19119;52.474;13.710;2024-02-28T01:28:08;22.63;;;9.63;;
32748;SDS011;19119;52.474;13.710;2024-02-28T01:30:33;28.92;;;11.02;;
32748;SDS011;19119;52.474;13.710;2024-02-28T01:32:59;32.55;;;12.80;;
32748;SDS011;19119;52.474;13.710;2024-02-28T01:35:24;31.13;;;11.98;;
32748;SDS011;19119;52.474;13.710;2024-02-28T01:37:50;33.20;;;10.68;;
32748;SDS011;19119;52.474;13.710;2024-02-28T01:40:15;36.13;;;11.25;;
32748;SDS011;19119;52.474;13.710;2024-02-28T01:42:41;21.85;;;9.48;;
32748;SDS011;19119;52.474;13.710;2024-02-28T01:45:07;31.10;;;11.20;;
32748;SDS011;19119;52.474;13.710;2024-02-28T01:47:37;27.38;;;10.38;;
32748;SDS011;19119;52.474;13.710;2024-02-28T01:50:03;29.23;;;9.95;;
32748;SDS011;19119;52.474;13.710;2024-02-28T01:52:30;24.88;;;10.52;;
32748;SDS011;19119;52.474;13.710;2024-02-28T01:54:55;30.48;;;11.25;;
32748;SDS011;19119;52.474;13.710;2024-02-28T01:57:21;31.60;;;11.90;;
32748;SDS011;19119;52.474;13.710;2024-02-28T01:59:47;27.05;;;10.60;;
32748;SDS011;19119;52.474;13.710;2024-02-28T02:02:12;27.95;;;10.38;;
32748;SDS011;19119;52.474;13.710;2024-02-28T02:04:38;32.22;;;10.95;;
32748;SDS011;19119;52.474;13.710;2024-02-28T02:07:04;24.35;;;9.98;;
32748;SDS011;19119;52.474;13.710;2024-02-28T02:09:31;30.80;;;11.23;;
32748;SDS011;19119;52.474;13.710;2024-02-28T02:11:59;33.53;;;9.75;;
32748;SDS011;19119;52.474;13.710;2024-02-28T02:14:24;27.52;;;10.07;;
32748;SDS011;19119;52.474;13.710;2024-02-28T02:16:50;32.13;;;10.18;;
32748;SDS011;19119;52.474;13.710;2024-02-28T02:19:15;27.15;;;10.55;;
32748;SDS011;19119;52.474;13.710;2024-02-28T02:21:43;32.88;;;11.52;;
32748;SDS011;19119;52.474;13.710;2024-02-28T02:24:15;28.67;;;10.00;;
32748;SDS011;19119;52.474;13.710;2024-02-28T02:26:41;26.67;;;10.35;;
32748;SDS011;19119;52.474;13.710;2024-02-28T02:29:09;27.25;;;10.02;;
32748;SDS011;19119;52.474;13.710;2024-02-28T02:31:35;27.33;;;9.88;;
32748;SDS011;19119;52.474;13.710;2024-02-28T02:34:00;31.50;;;11.57;;
32748;SDS011;19119;52.474;13.710;2024-02-28T02:36:26;26.25;;;9.52;;
32748;SDS011;19119;52.474;13.710;2024-02-28T02:38:51;29.00;;;9.60;;
32748;SDS011;19119;52.474;13.710;2024-02-28T02:41:16;27.50;;;9.68;;
32748;SDS011;19119;52.474;13.710;2024-02-28T02:43:43;27.83;;;10.48;;
32748;SDS011;19119;52.474;13.710;2024-02-28T02:46:08;26.50;;;10.23;;
32748;SDS011;19119;52.474;13.710;2024-02-28T02:48:34;29.60;;;11.25;;
32748;SDS011;19119;52.474;13.710;2024-02-28T02:50:59;29.83;;;9.80;;
32748;SDS011;19119;52.474;13.710;2024-02-28T02:53:25;29.10;;;11.70;;
32748;SDS011;19119;52.474;13.710;2024-02-28T02:55:50;26.10;;;9.10;;
32748;SDS011;19119;52.474;13.710;2024-02-28T02:58:15;27.27;;;9.50;;
32748;SDS011;19119;52.474;13.710;2024-02-28T03:00:41;22.77;;;9.23;;
32748;SDS011;19119;52.474;13.710;2024-02-28T03:03:06;22.17;;;9.32;;
32748;SDS011;19119;52.474;13.710;2024-02-28T03:05:32;28.40;;;9.70;;
32748;SDS011;19119;52.474;13.710;2024-02-28T03:07:57;30.05;;;10.18;;
32748;SDS011;19119;52.474;13.710;2024-02-28T03:10:23;25.58;;;8.98;;
32748;SDS011;19119;52.474;13.710;2024-02-28T03:12:48;32.38;;;9.52;;
32748;SDS011;19119;52.474;13.710;2024-02-28T03:15:14;19.70;;;8.90;;
32748;SDS011;19119;52.474;13.710;2024-02-28T03:17:39;28.80;;;9.95;;
32748;SDS011;19119;52.474;13.710;2024-02-28T03:20:05;32.85;;;10.63;;
32748;SDS011;19119;52.474;13.710;2024-02-28T03:22:32;27.20;;;9.05;;
32748;SDS011;19119;52.474;13.710;2024-02-28T03:24:58;27.92;;;9.85;;
32748;SDS011;19119;52.474;13.710;2024-02-28T03:27:23;27.98;;;10.68;;
32748;SDS011;19119;52.474;13.710;2024-02-28T03:29:49;24.30;;;9.40;;
32748;SDS011;19119;52.474;13.710;2024-02-28T03:32:14;31.80;;;11.10;;
32748;SDS011;19119;52.474;13.710;2024-02-28T03:34:40;28.23;;;10.55;;
32748;SDS011;19119;52.474;13.710;2024-02-28T03:37:05;27.35;;;10.05;;
32748;SDS011;19119;52.474;13.710;2024-02-28T03:39:31;23.63;;;10.10;;
32748;SDS011;19119;52.474;13.710;2024-02-28T03:41:56;30.85;;;12.35;;
32748;SDS011;19119;52.474;13.710;2024-02-28T03:44:22;25.83;;;10.70;;
32748;SDS011;19119;52.474;13.710;2024-02-28T03:46:47;29.10;;;9.68;;
32748;SDS011;19119;52.474;13.710;2024-02-28T03:49:12;29.52;;;11.23;;
32748;SDS011;19119;52.474;13.710;2024-02-28T03:51:41;34.88;;;11.70;;
32748;SDS011;19119;52.474;13.710;2024-02-28T03:54:06;27.65;;;11.23;;
32748;SDS011;19119;52.474;13.710;2024-02-28T03:56:32;26.90;;;9.57;;
32748;SDS011;19119;52.474;13.710;2024-02-28T03:58:58;23.00;;;9.88;;
32748;SDS011;19119;52.474;13.710;2024-02-28T04:01:23;26.35;;;9.07;;
32748;SDS011;19119;52.474;13.710;2024-02-28T04:03:49;25.63;;;9.10;;
32748;SDS011;19119;52.474;13.710;2024-02-28T04:06:14;19.58;;;7.78;;
32748;SDS011;19119;52.474;13.710;2024-02-28T04:08:43;24.13;;;8.55;;
32748;SDS011;19119;52.474;13.710;2024-02-28T04:11:08;18.65;;;7.55;;
32748;SDS011;19119;52.474;13.710;2024-02-28T04:13:33;18.13;;;7.53;;
32748;SDS011;19119;52.474;13.710;2024-02-28T04:15:59;17.15;;;6.95;;
32748;SDS011;19119;52.474;13.710;2024-02-28T04:18:25;21.67;;;8.05;;
32748;SDS011;19119;52.474;13.710;2024-02-28T04:20:51;20.00;;;7.20;;
32748;SDS011;19119;52.474;13.710;2024-02-28T04:23:16;21.38;;;7.40;;
32748;SDS011;19119;52.474;13.710;2024-02-28T04:25:42;18.50;;;6.55;;
32748;SDS011;19119;52.474;13.710;2024-02-28T04:28:07;20.10;;;7.60;;
32748;SDS011;19119;52.474;13.710;2024-02-28T04:30:33;16.13;;;6.88;;
32748;SDS011;19119;52.474;13.710;2024-02-28T04:32:59;20.42;;;8.02;;
32748;SDS011;19119;52.474;13.710;2024-02-28T04:35:25;20.02;;;7.30;;
32748;SDS011;19119;52.474;13.710;2024-02-28T04:37:50;23.17;;;8.30;;
32748;SDS011;19119;52.474;13.710;2024-02-28T04:40:16;17.25;;;7.03;;
32748;SDS011;19119;52.474;13.710;2024-02-28T04:42:41;18.40;;;6.38;;
32748;SDS011;19119;52.474;13.710;2024-02-28T04:45:08;19.88;;;8.73;;
32748;SDS011;19119;52.474;13.710;2024-02-28T04:47:34;18.30;;;7.35;;
32748;SDS011;19119;52.474;13.710;2024-02-28T04:49:59;20.50;;;7.53;;
32748;SDS011;19119;52.474;13.710;2024-02-28T04:52:24;18.55;;;7.88;;
32748;SDS011;19119;52.474;13.710;2024-02-28T04:54:50;19.58;;;6.95;;
32748;SDS011;19119;52.474;13.710;2024-02-28T04:57:16;13.13;;;6.82;;
32748;SDS011;19119;52.474;13.710;2024-02-28T04:59:43;15.38;;;6.38;;
32748;SDS011;19119;52.474;13.710;2024-02-28T05:02:09;13.65;;;6.07;;
32748;SDS011;19119;52.474;13.710;2024-02-28T05:04:34;15.38;;;6.47;;
32748;SDS011;19119;52.474;13.710;2024-02-28T05:07:00;16.25;;;7.40;;
32748;SDS011;19119;52.474;13.710;2024-02-28T05:09:25;13.25;;;5.55;;
32748;SDS011;19119;52.474;13.710;2024-02-28T05:11:51;15.13;;;5.55;;
32748;SDS011;19119;52.474;13.710;2024-02-28T05:14:16;11.95;;;4.68;;
32748;SDS011;19119;52.474;13.710;2024-02-28T05:16:42;11.98;;;5.43;;
32748;SDS011;19119;52.474;13.710;2024-02-28T05:19:07;13.13;;;5.72;;
32748;SDS011;19119;52.474;13.710;2024-02-28T05:21:41;14.95;;;5.50;;
32748;SDS011;19119;52.474;13.710;2024-02-28T05:24:07;11.63;;;4.97;;
32748;SDS011;19119;52.474;13.710;2024-02-28T05:26:34;16.73;;;5.32;;
32748;SDS011;19119;52.474;13.710;2024-02-28T05:29:00;10.63;;;5.13;;
32748;SDS011;19119;52.474;13.710;2024-02-28T05:31:28;10.30;;;5.25;;
32748;SDS011;19119;52.474;13.710;2024-02-28T05:33:54;13.82;;;5.55;;
32748;SDS011;19119;52.474;13.710;2024-02-28T05:36:25;14.00;;;5.47;;
32748;SDS011;19119;52.474;13.710;2024-02-28T05:38:52;7.68;;;3.78;;
32748;SDS011;19119;52.474;13.710;2024-02-28T05:41:19;8.40;;;4.22;;
32748;SDS011;19119;52.474;13.710;2024-02-28T05:43:45;10.18;;;4.47;;
32748;SDS011;19119;52.474;13.710;2024-02-28T05:46:11;12.20;;;6.10;;
32748;SDS011;19119;52.474;13.710;2024-02-28T05:48:37;11.23;;;5.10;;
32748;SDS011;19119;52.474;13.710;2024-02-28T05:51:04;9.52;;;4.45;;
32748;SDS011;19119;52.474;13.710;2024-02-28T05:53:30;10.52;;;4.93;;
32748;SDS011;19119;52.474;13.710;2024-02-28T05:56:02;8.90;;;4.25;;
32748;SDS011;19119;52.474;13.710;2024-02-28T05:58:27;11.02;;;4.68;;
32748;SDS011;19119;52.474;13.710;2024-02-28T06:00:53;9.95;;;4.93;;
32748;SDS011;19119;52.474;13.710;2024-02-28T06:03:19;11.25;;;4.07;;
32748;SDS011;19119;52.474;13.710;2024-02-28T06:05:44;6.75;;;3.42;;
32748;SDS011;19119;52.474;13.710;2024-02-28T06:08:10;9.13;;;4.05;;
32748;SDS011;19119;52.474;13.710;2024-02-28T06:10:35;10.18;;;4.30;;
32748;SDS011;19119;52.474;13.710;2024-02-28T06:13:02;7.28;;;4.32;;
32748;SDS011;19119;52.474;13.710;2024-02-28T06:15:27;7.50;;;3.85;;
32748;SDS011;19119;52.474;13.710;2024-02-28T06:17:53;8.73;;;3.67;;
32748;SDS011;19119;52.474;13.710;2024-02-28T06:20:20;6.78;;;3.63;;
32748;SDS011;19119;52.474;13.710;2024-02-28T06:22:46;8.70;;;4.03;;
32748;SDS011;19119;52.474;13.710;2024-02-28T06:25:11;7.03;;;3.50;;
32748;SDS011;19119;52.474;13.710;2024-02-28T06:27:44;8.85;;;4.10;;
32748;SDS011;19119;52.474;13.710;2024-02-28T06:30:10;9.40;;;4.25;;
32748;SDS011;19119;52.474;13.710;2024-02-28T06:32:39;8.43;;;3.78;;
32748;SDS011;19119;52.474;13.710;2024-02-28T06:35:05;7.22;;;3.85;;
32748;SDS011;19119;52.474;13.710;2024-02-28T06:37:32;7.78;;;3.50;;
32748;SDS011;19119;52.474;13.710;2024-02-28T06:39:57;7.95;;;3.55;;
32748;SDS011;19119;52.474;13.710;2024-02-28T06:42:23;9.85;;;4.30;;
32748;SDS011;19119;52.474;13.710;2024-02-28T06:44:49;9.05;;;4.10;;
32748;SDS011;19119;52.474;13.710;2024-02-28T06:47:14;5.97;;;3.50;;
32748;SDS011;19119;52.474;13.710;2024-02-28T06:49:40;10.65;;;4.35;;
32748;SDS011;19119;52.474;13.710;2024-02-28T06:52:05;8.75;;;3.50;;
32748;SDS011;19119;52.474;13.710;2024-02-28T06:54:31;8.50;;;3.88;;
32748;SDS011;19119;52.474;13.710;2024-02-28T06:56:56;11.73;;;3.97;;
32748;SDS011;19119;52.474;13.710;2024-02-28T06:59:22;8.63;;;4.10;;
32748;SDS011;19119;52.474;13.710;2024-02-28T07:01:48;12.20;;;4.78;;
32748;SDS011;19119;52.474;13.710;2024-02-28T07:04:13;11.13;;;4.38;;
32748;SDS011;19119;52.474;13.710;2024-02-28T07:06:39;8.23;;;4.32;;
32748;SDS011;19119;52.474;13.710;2024-02-28T07:09:07;9.10;;;3.83;;
32748;SDS011;19119;52.474;13.710;2024-02-28T07:11:33;7.95;;;4.35;;
32748;SDS011;19119;52.474;13.710;2024-02-28T07:13:59;8.13;;;3.90;;
32748;SDS011;19119;52.474;13.710;2024-02-28T07:16:27;8.98;;;3.75;;
32748;SDS011;19119;52.474;13.710;2024-02-28T07:18:53;10.57;;;3.97;;
32748;SDS011;19119;52.474;13.710;2024-02-28T07:21:18;7.43;;;3.65;;
32748;SDS011;19119;52.474;13.710;2024-02-28T07:23:44;10.10;;;3.75;;
32748;SDS011;19119;52.474;13.710;2024-02-28T07:26:14;8.48;;;4.45;;
32748;SDS011;19119;52.474;13.710;2024-02-28T07:28:40;10.65;;;5.43;;
32748;SDS011;19119;52.474;13.710;2024-02-28T07:31:05;10.07;;;4.38;;
32748;SDS011;19119;52.474;13.710;2024-02-28T07:33:31;13.18;;;5.93;;
32748;SDS011;19119;52.474;13.710;2024-02-28T07:35:56;13.02;;;5.93;;
32748;SDS011;19119;52.474;13.710;2024-02-28T07:38:25;12.43;;;6.40;;
32748;SDS011;19119;52.474;13.710;2024-02-28T07:40:52;16.30;;;6.72;;
32748;SDS011;19119;52.474;13.710;2024-02-28T07:43:18;14.43;;;5.93;;
32748;SDS011;19119;52.474;13.710;2024-02-28T07:45:43;11.95;;;5.82;;
32748;SDS011;19119;52.474;13.710;2024-02-28T07:48:09;10.00;;;5.55;;
32748;SDS011;19119;52.474;13.710;2024-02-28T07:50:34;12.13;;;6.57;;
32748;SDS011;19119;52.474;13.710;2024-02-28T07:53:00;11.90;;;6.40;;
32748;SDS011;19119;52.474;13.710;2024-02-28T07:55:25;10.25;;;6.25;;
32748;SDS011;19119;52.474;13.710;2024-02-28T07:57:53;9.50;;;4.43;;
32748;SDS011;19119;52.474;13.710;2024-02-28T08:00:19;12.68;;;6.22;;
32748;SDS011;19119;52.474;13.710;2024-02-28T08:02:45;11.07;;;5.82;;
32748;SDS011;19119;52.474;13.710;2024-02-28T08:05:11;9.88;;;4.30;;
32748;SDS011;19119;52.474;13.710;2024-02-28T08:07:37;15.25;;;5.82;;
32748;SDS011;19119;52.474;13.710;2024-02-28T08:10:03;15.65;;;6.40;;
32748;SDS011;19119;52.474;13.710;2024-02-28T08:12:30;10.85;;;5.80;;
32748;SDS011;19119;52.474;13.710;2024-02-28T08:14:57;14.52;;;7.35;;
32748;SDS011;19119;52.474;13.710;2024-02-28T08:17:22;17.08;;;6.20;;
32748;SDS011;19119;52.474;13.710;2024-02-28T08:19:48;14.63;;;6.90;;
32748;SDS011;19119;52.474;13.710;2024-02-28T08:22:13;15.10;;;7.50;;
32748;SDS011;19119;52.474;13.710;2024-02-28T08:24:39;16.00;;;6.93;;
32748;SDS011;19119;52.474;13.710;2024-02-28T08:27:05;16.15;;;8.30;;
32748;SDS011;19119;52.474;13.710;2024-02-28T08:29:30;18.63;;;7.90;;
32748;SDS011;19119;52.474;13.710;2024-02-28T08:31:57;17.23;;;7.63;;
32748;SDS011;19119;52.474;13.710;2024-02-28T08:34:23;17.00;;;7.43;;
32748;SDS011;19119;52.474;13.710;2024-02-28T08:36:48;20.25;;;8.65;;
32748;SDS011;19119;52.474;13.710;2024-02-28T08:39:14;18.92;;;8.55;;
32748;SDS011;19119;52.474;13.710;2024-02-28T08:41:39;16.45;;;9.07;;
32748;SDS011;19119;52.474;13.710;2024-02-28T08:44:05;21.83;;;10.13;;
32748;SDS011;19119;52.474;13.710;2024-02-28T08:46:30;21.38;;;9.65;;
32748;SDS011;19119;52.474;13.710;2024-02-28T08:48:56;20.83;;;9.20;;
32748;SDS011;19119;52.474;13.710;2024-02-28T08:51:21;16.85;;;8.32;;
32748;SDS011;19119;52.474;13.710;2024-02-28T08:53:47;21.63;;;9.00;;
32748;SDS011;19119;52.474;13.710;2024-02-28T08:56:12;17.17;;;8.23;;
32748;SDS011;19119;52.474;13.710;2024-02-28T08:58:38;21.15;;;8.18;;
32748;SDS011;19119;52.474;13.710;2024-02-28T09:01:03;17.83;;;7.80;;
32748;SDS011;19119;52.474;13.710;2024-02-28T09:03:29;15.18;;;8.00;;
32748;SDS011;19119;52.474;13.710;2024-02-28T09:05:54;16.77;;;8.90;;
32748;SDS011;19119;52.474;13.710;2024-02-28T09:08:20;19.98;;;8.45;;
32748;SDS011;19119;52.474;13.710;2024-02-28T09:10:45;15.65;;;8.20;;
32748;SDS011;19119;52.474;13.710;2024-02-28T09:13:12;18.77;;;10.20;;
32748;SDS011;19119;52.474;13.710;2024-02-28T09:15:37;19.30;;;8.80;;
32748;SDS011;19119;52.474;13.710;2024-02-28T09:18:03;16.85;;;8.10;;
32748;SDS011;19119;52.474;13.710;2024-02-28T09:20:29;19.23;;;8.40;;
32748;SDS011;19119;52.474;13.710;2024-02-28T09:22:54;17.55;;;9.80;;
32748;SDS011;19119;52.474;13.710;2024-02-28T09:25:20;21.90;;;10.77;;
32748;SDS011;19119;52.474;13.710;2024-02-28T09:27:46;20.75;;;10.75;;
32748;SDS011;19119;52.474;13.710;2024-02-28T09:30:12;20.48;;;10.15;;
32748;SDS011;19119;52.474;13.710;2024-02-28T09:32:38;18.70;;;10.95;;
32748;SDS011;19119;52.474;13.710;2024-02-28T09:35:03;21.17;;;10.85;;
32748;SDS011;19119;52.474;13.710;2024-02-28T09:37:29;23.38;;;11.38;;
32748;SDS011;19119;52.474;13.710;2024-02-28T09:39:56;23.05;;;11.10;;
32748;SDS011;19119;52.474;13.710;2024-02-28T09:42:22;19.55;;;10.85;;
32748;SDS011;19119;52.474;13.710;2024-02-28T09:44:47;19.30;;;10.88;;
32748;SDS011;19119;52.474;13.710;2024-02-28T09:47:13;20.20;;;10.40;;
32748;SDS011;19119;52.474;13.710;2024-02-28T09:49:39;20.63;;;10.90;;
32748;SDS011;19119;52.474;13.710;2024-02-28T09:52:07;20.17;;;10.18;;
32748;SDS011;19119;52.474;13.710;2024-02-28T09:54:32;18.10;;;10.50;;
32748;SDS011;19119;52.474;13.710;2024-02-28T09:56:58;23.73;;;10.25;;
32748;SDS011;19119;52.474;13.710;2024-02-28T09:59:24;15.50;;;9.20;;
32748;SDS011;19119;52.474;13.710;2024-02-28T10:01:53;17.95;;;9.20;;
32748;SDS011;19119;52.474;13.710;2024-02-28T10:04:28;17.38;;;10.65;;
32748;SDS011;19119;52.474;13.710;2024-02-28T10:06:54;17.20;;;9.82;;
32748;SDS011;19119;52.474;13.710;2024-02-28T10:09:20;19.30;;;10.27;;
32748;SDS011;19119;52.474;13.710;2024-02-28T10:11:46;17.80;;;9.38;;
32748;SDS011;19119;52.474;13.710;2024-02-28T10:14:16;16.60;;;10.10;;
32748;SDS011;19119;52.474;13.710;2024-02-28T10:16:42;17.85;;;10.43;;
32748;SDS011;19119;52.474;13.710;2024-02-28T10:19:08;16.08;;;9.57;;
32748;SDS011;19119;52.474;13.710;2024-02-28T10:21:33;16.80;;;9.73;;
32748;SDS011;19119;52.474;13.710;2024-02-28T10:23:59;16.75;;;10.48;;
32748;SDS011;19119;52.474;13.710;2024-02-28T10:26:24;17.90;;;10.18;;
32748;SDS011;19119;52.474;13.710;2024-02-28T10:28:50;20.13;;;10.75;;
32748;SDS011;19119;52.474;13.710;2024-02-28T10:31:16;20.65;;;11.82;;
32748;SDS011;19119;52.474;13.710;2024-02-28T10:33:41;20.77;;;10.40;;
32748;SDS011;19119;52.474;13.710;2024-02-28T10:36:07;25.60;;;12.75;;
32748;SDS011;19119;52.474;13.710;2024-02-28T10:38:33;26.75;;;13.70;;
32748;SDS011;19119;52.474;13.710;2024-02-28T10:41:00;23.05;;;11.63;;
32748;SDS011;19119;52.474;13.710;2024-02-28T10:43:27;23.85;;;12.23;;
32748;SDS011;19119;52.474;13.710;2024-02-28T10:45:55;24.00;;;11.80;;
32748;SDS011;19119;52.474;13.710;2024-02-28T10:48:25;24.92;;;12.77;;
32748;SDS011;19119;52.474;13.710;2024-02-28T10:50:51;23.73;;;11.77;;
32748;SDS011;19119;52.474;13.710;2024-02-28T10:53:20;19.10;;;9.95;;
32748;SDS011;19119;52.474;13.710;2024-02-28T10:56:02;24.42;;;12.35;;
32748;SDS011;19119;52.474;13.710;2024-02-28T10:58:29;24.20;;;11.55;;
32748;SDS011;19119;52.474;13.710;2024-02-28T11:01:05;30.65;;;13.95;;
32748;SDS011;19119;52.474;13.710;2024-02-28T11:03:32;32.20;;;15.43;;
32748;SDS011;19119;52.474;13.710;2024-02-28T11:05:57;25.20;;;11.52;;
32748;SDS011;19119;52.474;13.710;2024-02-28T11:08:23;25.42;;;12.88;;
32748;SDS011;19119;52.474;13.710;2024-02-28T11:10:56;21.45;;;10.52;;
32748;SDS011;19119;52.474;13.710;2024-02-28T11:13:22;20.88;;;8.63;;
32748;SDS011;19119;52.474;13.710;2024-02-28T11:15:52;18.75;;;8.13;;
32748;SDS011;19119;52.474;13.710;2024-02-28T11:18:18;20.52;;;9.65;;
32748;SDS011;19119;52.474;13.710;2024-02-28T11:20:44;20.05;;;9.45;;
32748;SDS011;19119;52.474;13.710;2024-02-28T11:23:12;19.13;;;8.93;;
32748;SDS011;19119;52.474;13.710;2024-02-28T11:25:39;17.35;;;9.23;;
32748;SDS011;19119;52.474;13.710;2024-02-28T11:28:05;20.02;;;9.07;;
32748;SDS011;19119;52.474;13.710;2024-02-28T11:30:31;16.08;;;8.40;;
32748;SDS011;19119;52.474;13.710;2024-02-28T11:32:57;18.80;;;9.95;;
32748;SDS011;19119;52.474;13.710;2024-02-28T11:35:24;20.77;;;8.82;;
32748;SDS011;19119;52.474;13.710;2024-02-28T11:37:51;21.10;;;10.15;;
32748;SDS011;19119;52.474;13.710;2024-02-28T11:40:21;23.42;;;11.27;;
32748;SDS011;19119;52.474;13.710;2024-02-28T11:42:48;20.10;;;9.48;;
32748;SDS011;19119;52.474;13.710;2024-02-28T11:45:14;19.95;;;9.57;;
32748;SDS011;19119;52.474;13.710;2024-02-28T11:47:39;22.67;;;10.80;;
32748;SDS011;19119;52.474;13.710;2024-02-28T11:50:05;22.02;;;9.45;;
32748;SDS011;19119;52.474;13.710;2024-02-28T11:52:31;20.08;;;9.27;;
32748;SDS011;19119;52.474;13.710;2024-02-28T11:54:57;22.10;;;9.75;;
32748;SDS011;19119;52.474;13.710;2024-02-28T11:57:22;22.08;;;10.32;;
32748;SDS011;19119;52.474;13.710;2024-02-28T11:59:48;21.58;;;10.82;;
32748;SDS011;19119;52.474;13.710;2024-02-28T12:02:14;18.08;;;9.35;;
32748;SDS011;19119;52.474;13.710;2024-02-28T12:04:44;24.77;;;10.27;;
32748;SDS011;19119;52.474;13.710;2024-02-28T12:07:10;22.95;;;9.10;;
32748;SDS011;19119;52.474;13.710;2024-02-28T12:09:35;20.30;;;9.23;;
32748;SDS011;19119;52.474;13.710;2024-02-28T12:12:01;22.10;;;9.73;;
32748;SDS011;19119;52.474;13.710;2024-02-28T12:14:29;24.92;;;9.40;;
32748;SDS011;19119;52.474;13.710;2024-02-28T12:16:57;24.65;;;10.27;;
32748;SDS011;19119;52.474;13.710;2024-02-28T12:19:22;21.02;;;9.88;;
32748;SDS011;19119;52.474;13.710;2024-02-28T12:21:49;26.65;;;11.00;;
32748;SDS011;19119;52.474;13.710;2024-02-28T12:24:14;22.85;;;11.02;;
32748;SDS011;19119;52.474;13.710;2024-02-28T12:26:40;25.85;;;12.65;;
32748;SDS011;19119;52.474;13.710;2024-02-28T12:29:06;27.15;;;12.60;;
32748;SDS011;19119;52.474;13.710;2024-02-28T12:31:32;27.00;;;12.30;;
32748;SDS011;19119;52.474;13.710;2024-02-28T12:33:57;21.02;;;10.93;;
32748;SDS011;19119;52.474;13.710;2024-02-28T12:36:23;29.13;;;11.98;;
32748;SDS011;19119;52.474;13.710;2024-02-28T12:38:48;24.13;;;11.63;;
32748;SDS011;19119;52.474;13.710;2024-02-28T12:41:14;25.00;;;11.07;;
32748;SDS011;19119;52.474;13.710;2024-02-28T12:43:40;24.80;;;12.35;;
32748;SDS011;19119;52.474;13.710;2024-02-28T12:46:06;25.92;;;12.45;;
32748;SDS011;19119;52.474;13.710;2024-02-28T12:48:36;29.70;;;13.85;;
32748;SDS011;19119;52.474;13.710;2024-02-28T12:51:03;26.17;;;12.18;;
32748;SDS011;19119;52.474;13.710;2024-02-28T12:53:30;27.23;;;12.10;;
32748;SDS011;19119;52.474;13.710;2024-02-28T12:55:55;26.33;;;12.32;;
32748;SDS011;19119;52.474;13.710;2024-02-28T12:58:21;26.55;;;13.13;;
32748;SDS011;19119;52.474;13.710;2024-02-28T13:00:48;25.60;;;12.48;;
32748;SDS011;19119;52.474;13.710;2024-02-28T13:03:14;23.52;;;12.82;;
32748;SDS011;19119;52.474;13.710;2024-02-28T13:05:41;28.88;;;13.55;;
32748;SDS011;19119;52.474;13.710;2024-02-28T13:08:06;24.75;;;12.65;;
32748;SDS011;19119;52.474;13.710;2024-02-28T13:10:32;21.95;;;10.10;;
32748;SDS011;19119;52.474;13.710;2024-02-28T13:13:01;23.55;;;11.73;;
32748;SDS011;19119;52.474;13.710;2024-02-28T13:15:28;23.98;;;11.50;;
32748;SDS011;19119;52.474;13.710;2024-02-28T13:17:53;23.95;;;11.68;;
32748;SDS011;19119;52.474;13.710;2024-02-28T13:20:19;28.02;;;11.25;;
32748;SDS011;19119;52.474;13.710;2024-02-28T13:22:44;23.65;;;11.00;;
32748;SDS011;19119;52.474;13.710;2024-02-28T13:25:11;25.77;;;12.20;;
32748;SDS011;19119;52.474;13.710;2024-02-28T13:27:36;19.48;;;9.82;;
32748;SDS011;19119;52.474;13.710;2024-02-28T13:30:02;23.40;;;11.18;;
32748;SDS011;19119;52.474;13.710;2024-02-28T13:32:28;24.00;;;12.48;;
32748;SDS011;19119;52.474;13.710;2024-02-28T13:34:54;23.35;;;13.23;;
32748;SDS011;19119;52.474;13.710;2024-02-28T13:37:19;26.20;;;13.93;;
32748;SDS011;19119;52.474;13.710;2024-02-28T13:39:45;21.95;;;12.35;;
32748;SDS011;19119;52.474;13.710;2024-02-28T13:42:11;22.02;;;11.98;;
32748;SDS011;19119;52.474;13.710;2024-02-28T13:44:36;24.50;;;11.63;;
32748;SDS011;19119;52.474;13.710;2024-02-28T13:47:02;19.58;;;11.05;;
32748;SDS011;19119;52.474;13.710;2024-02-28T13:49:28;21.67;;;12.00;;
32748;SDS011;19119;52.474;13.710;2024-02-28T13:51:54;20.40;;;11.20;;
32748;SDS011;19119;52.474;13.710;2024-02-28T13:54:19;18.42;;;11.18;;
32748;SDS011;19119;52.474;13.710;2024-02-28T13:56:45;24.02;;;11.70;;
32748;SDS011;19119;52.474;13.710;2024-02-28T13:59:10;21.98;;;11.52;;
32748;SDS011;19119;52.474;13.710;2024-02-28T14:01:36;21.40;;;11.30;;
32748;SDS011;19119;52.474;13.710;2024-02-28T14:04:01;21.45;;;11.95;;
32748;SDS011;19119;52.474;13.710;2024-02-28T14:06:28;20.02;;;11.18;;
32748;SDS011;19119;52.474;13.710;2024-02-28T14:08:54;19.90;;;11.82;;